Time;durP1;ratioP1;P1;durP2;ratioP2;P2;SDS_P1;SDS_P2;PMS_P1;PMS_P2;Temp;Humidity;BMP_temperature;BMP_pressure;BME280_temperature;BME280_humidity;BME280_pressure;Samples;Min_cycle;Max_cycle;Signal;HPM_P1;HPM_P2
2022/05/01 00:01:47;;;;;;;20.02;18.73;;;;;;;;;;5050508;28;20048;-60
2022/05/01 00:04:13;;;;;;;16.02;15.02;;;;;;;;;;5062190;28;20159;-60
2022/05/01 00:06:38;;;;;;;16.40;15.40;;;;;;;;;;5056550;28;20041;-60
2022/05/01 00:09:04;;;;;;;15.80;14.90;;;;;;;;;;5053386;28;20369;-60
2022/05/01 00:11:30;;;;;;;16.05;15.02;;;;;;;;;;5053542;28;20086;-60
2022/05/01 00:13:57;;;;;;;17.08;16.08;;;;;;;;;;5054755;28;20093;-61
2022/05/01 00:16:23;;;;;;;18.30;17.20;;;;;;;;;;5049850;28;20047;-60
2022/05/01 00:18:48;;;;;;;16.10;15.13;;;;;;;;;;5067882;28;20025;-60
2022/05/01 00:21:14;;;;;;;18.52;17.42;;;;;;;;;;5070762;28;20039;-60
2022/05/01 00:23:39;;;;;;;18.10;17.02;;;;;;;;;;5054625;28;20029;-60
2022/05/01 00:26:06;;;;;;;17.48;16.48;;;;;;;;;;5052406;28;20089;-60
2022/05/01 00:28:33;;;;;;;17.75;16.75;;;;;;;;;;5049619;28;20041;-60
2022/05/01 00:30:58;;;;;;;18.98;17.88;;;;;;;;;;5044533;28;20024;-60
2022/05/01 00:36:27;;;;;;;17.65;16.65;;;;;;;;;;5044796;28;20041;-60
2022/05/01 00:39:02;;;;;;;20.67;19.50;;;;;;;;;;5036804;28;20016;-60
2022/05/01 00:41:32;;;;;;;18.63;17.42;;;;;;;;;;5053798;28;20368;-61
2022/05/01 00:44:11;;;;;;;21.17;19.98;;;;;;;;;;5048902;28;20029;-60
2022/05/01 00:46:43;;;;;;;16.63;15.68;;;;;;;;;;5050637;28;20037;-60
2022/05/01 00:49:11;;;;;;;15.98;15.07;;;;;;;;;;5051143;28;20495;-60
2022/05/01 00:51:59;;;;;;;17.58;16.58;;;;;;;;;;5050786;28;20032;-60
2022/05/01 00:54:29;;;;;;;14.98;14.07;;;;;;;;;;5053772;28;20040;-60
2022/05/01 00:56:59;;;;;;;14.68;13.85;;;;;;;;;;5044912;28;20040;-60
2022/05/01 00:59:26;;;;;;;14.57;13.65;;;;;;;;;;5069950;28;20055;-60
2022/05/01 01:01:52;;;;;;;17.83;16.83;;;;;;;;;;5053956;28;20024;-60
2022/05/01 01:04:18;;;;;;;15.35;14.35;;;;;;;;;;5053044;28;20548;-60
2022/05/01 01:06:44;;;;;;;17.35;16.35;;;;;;;;;;5053611;28;20115;-60
2022/05/01 01:09:10;;;;;;;20.25;19.15;;;;;;;;;;5066995;28;20033;-60
2022/05/01 01:11:37;;;;;;;15.80;14.90;;;;;;;;;;5050583;28;20029;-62
2022/05/01 01:14:05;;;;;;;20.27;19.08;;;;;;;;;;5051566;28;20389;-63
2022/05/01 01:16:31;;;;;;;21.58;20.38;;;;;;;;;;5049580;28;20031;-63
2022/05/01 01:18:57;;;;;;;17.20;16.20;;;;;;;;;;5053240;28;20494;-64
2022/05/01 01:21:23;;;;;;;15.68;14.75;;;;;;;;;;5049840;28;20040;-63
2022/05/01 01:23:48;;;;;;;13.13;12.32;;;;;;;;;;5048251;28;20036;-63
2022/05/01 01:26:14;;;;;;;14.95;14.07;;;;;;;;;;5047428;28;20076;-63
2022/05/01 01:28:41;;;;;;;12.27;11.55;;;;;;;;;;5048380;28;20036;-63
2022/05/01 01:33:59;;;;;;;14.90;14.00;;;;;;;;;;5048445;28;20032;-63
2022/05/01 01:36:28;;;;;;;14.38;13.48;;;;;;;;;;5049728;28;20029;-63
2022/05/01 01:38:53;;;;;;;14.30;13.50;;;;;;;;;;5052793;28;20037;-63
2022/05/01 01:41:27;;;;;;;12.13;11.40;;;;;;;;;;5053340;28;20040;-63
2022/05/01 01:43:54;;;;;;;13.18;12.40;;;;;;;;;;5051133;28;20652;-63
2022/05/01 01:46:19;;;;;;;14.95;14.07;;;;;;;;;;5051260;28;20155;-63
2022/05/01 01:48:46;;;;;;;17.45;16.45;;;;;;;;;;5051635;28;20501;-63
2022/05/01 01:51:12;;;;;;;14.18;13.38;;;;;;;;;;5054059;28;20044;-63
2022/05/01 01:53:37;;;;;;;16.75;15.77;;;;;;;;;;5052484;28;20040;-63
2022/05/01 01:56:04;;;;;;;17.10;16.00;;;;;;;;;;5054325;28;20033;-63
2022/05/01 01:58:30;;;;;;;17.30;16.27;;;;;;;;;;5051829;28;20059;-63
2022/05/01 02:00:57;;;;;;;16.52;15.52;;;;;;;;;;5052837;28;20079;-63
2022/05/01 02:03:22;;;;;;;13.40;11.35;;;;;;;;;;5052669;28;20440;-63
2022/05/01 02:05:49;;;;;;;12.63;11.90;;;;;;;;;;5052383;28;20037;-63
2022/05/01 02:08:15;;;;;;;13.95;13.15;;;;;;;;;;5050730;28;20119;-63
2022/05/01 02:10:41;;;;;;;12.27;11.57;;;;;;;;;;5052551;28;20044;-63
2022/05/01 02:13:06;;;;;;;13.88;13.02;;;;;;;;;;5051432;28;20044;-63
2022/05/01 02:15:33;;;;;;;16.00;15.10;;;;;;;;;;5050561;28;20095;-63
2022/05/01 02:17:59;;;;;;;15.55;14.63;;;;;;;;;;5053709;28;20413;-63
2022/05/01 02:20:27;;;;;;;15.45;14.45;;;;;;;;;;5055998;28;20017;-62
2022/05/01 02:22:53;;;;;;;15.57;14.60;;;;;;;;;;5054913;28;20036;-62
2022/05/01 02:25:23;;;;;;;16.83;15.88;;;;;;;;;;5053383;28;20032;-62
2022/05/01 02:27:49;;;;;;;16.27;15.18;;;;;;;;;;5057421;28;20048;-62
2022/05/01 02:30:15;;;;;;;17.55;16.55;;;;;;;;;;5055907;28;20069;-62
2022/05/01 02:32:42;;;;;;;15.85;14.95;;;;;;;;;;5055417;28;20042;-62
2022/05/01 02:35:09;;;;;;;10.35;9.73;;;;;;;;;;5055740;28;20032;-62
2022/05/01 02:37:35;;;;;;;19.33;18.13;;;;;;;;;;5052909;28;20044;-62
2022/05/01 02:40:03;;;;;;;15.48;14.57;;;;;;;;;;5053328;28;20051;-62
2022/05/01 02:42:28;;;;;;;13.85;13.05;;;;;;;;;;5055092;28;20043;-62
2022/05/01 02:44:56;;;;;;;17.48;16.48;;;;;;;;;;5055482;28;20029;-62
2022/05/01 02:47:21;;;;;;;15.63;14.73;;;;;;;;;;5056721;28;20120;-62
2022/05/01 02:49:47;;;;;;;16.10;14.93;;;;;;;;;;5053717;28;20140;-62
2022/05/01 02:52:12;;;;;;;19.88;18.70;;;;;;;;;;5056310;28;20031;-64
2022/05/01 02:54:38;;;;;;;20.90;19.70;;;;;;;;;;5051056;28;20100;-62
2022/05/01 02:57:03;;;;;;;16.98;15.98;;;;;;;;;;5058075;28;20082;-63
2022/05/01 02:59:29;;;;;;;19.40;18.30;;;;;;;;;;5057525;28;20039;-62
2022/05/01 03:01:58;;;;;;;17.17;16.23;;;;;;;;;;5053433;28;20025;-62
2022/05/01 03:04:24;;;;;;;18.80;17.75;;;;;;;;;;5053042;28;20040;-61
2022/05/01 03:06:49;;;;;;;18.08;17.08;;;;;;;;;;5059098;28;20028;-62
2022/05/01 03:09:15;;;;;;;18.10;17.02;;;;;;;;;;5049670;28;20079;-62
2022/05/01 03:11:40;;;;;;;18.20;17.15;;;;;;;;;;5054994;28;20071;-62
2022/05/01 03:14:09;;;;;;;16.80;15.82;;;;;;;;;;5050726;28;20143;-62
2022/05/01 03:16:35;;;;;;;18.50;17.45;;;;;;;;;;5056482;28;20044;-62
2022/05/01 03:24:28;;;;;;;15.20;14.02;;;;;;;;;;5051175;28;20044;-62
2022/05/01 03:26:53;;;;;;;16.35;15.35;;;;;;;;;;5055387;28;20025;-61
2022/05/01 03:29:19;;;;;;;16.58;15.50;;;;;;;;;;5053401;28;20428;-62
2022/05/01 03:31:46;;;;;;;19.35;18.25;;;;;;;;;;5052798;28;20060;-62
2022/05/01 03:34:12;;;;;;;18.30;17.23;;;;;;;;;;5055099;28;20147;-62
2022/05/01 03:36:37;;;;;;;17.38;16.38;;;;;;;;;;5053931;28;20592;-62
2022/05/01 03:39:05;;;;;;;13.70;12.90;;;;;;;;;;5054362;28;20032;-62
2022/05/01 03:41:31;;;;;;;17.65;16.65;;;;;;;;;;5055685;28;20087;-62
2022/05/01 03:43:56;;;;;;;18.05;17.05;;;;;;;;;;5054362;28;20245;-62
2022/05/01 03:46:22;;;;;;;15.82;14.88;;;;;;;;;;5053575;28;20032;-61
2022/05/01 03:48:48;;;;;;;15.80;14.90;;;;;;;;;;5056517;28;20123;-62
2022/05/01 03:51:13;;;;;;;14.85;13.95;;;;;;;;;;5051870;28;20111;-62
2022/05/01 03:53:39;;;;;;;16.73;15.82;;;;;;;;;;5054647;28;20127;-62
2022/05/01 03:56:05;;;;;;;13.88;12.98;;;;;;;;;;5055337;28;20108;-62
2022/05/01 03:58:30;;;;;;;13.60;12.77;;;;;;;;;;5053266;28;20032;-62
2022/05/01 04:00:56;;;;;;;15.50;14.63;;;;;;;;;;5051668;28;20142;-62
2022/05/01 04:03:22;;;;;;;15.10;14.15;;;;;;;;;;5054301;28;20044;-61
2022/05/01 04:05:48;;;;;;;16.08;15.07;;;;;;;;;;5052407;28;20130;-62
2022/05/01 04:08:13;;;;;;;14.50;13.65;;;;;;;;;;5054089;28;20037;-62
2022/05/01 04:10:41;;;;;;;16.88;15.82;;;;;;;;;;5054046;28;20104;-61
2022/05/01 04:13:07;;;;;;;16.05;15.15;;;;;;;;;;5052826;28;20060;-62
2022/05/01 04:15:33;;;;;;;16.08;15.07;;;;;;;;;;5050391;28;20572;-59
2022/05/01 04:17:59;;;;;;;15.65;14.75;;;;;;;;;;5055946;28;20032;-59
2022/05/01 04:20:25;;;;;;;13.80;13.00;;;;;;;;;;5051568;28;20525;-59
2022/05/01 04:22:50;;;;;;;15.45;14.48;;;;;;;;;;5051254;28;20032;-59
2022/05/01 04:25:20;;;;;;;13.70;12.88;;;;;;;;;;5052255;28;20063;-59
2022/05/01 04:27:47;;;;;;;14.88;13.98;;;;;;;;;;5051953;28;20044;-59
2022/05/01 04:30:14;;;;;;;17.00;16.00;;;;;;;;;;5054304;28;20708;-59
2022/05/01 04:32:56;;;;;;;16.70;15.70;;;;;;;;;;5053177;28;20102;-59
2022/05/01 04:35:22;;;;;;;16.38;15.48;;;;;;;;;;5052924;28;20062;-59
2022/05/01 04:37:48;;;;;;;15.77;14.88;;;;;;;;;;5050485;28;20048;-59
2022/05/01 04:40:14;;;;;;;13.70;12.88;;;;;;;;;;5053894;28;20021;-59
2022/05/01 04:42:41;;;;;;;12.80;12.00;;;;;;;;;;5052517;28;20489;-59
2022/05/01 04:45:08;;;;;;;14.48;13.57;;;;;;;;;;5049013;28;20822;-59
2022/05/01 04:47:33;;;;;;;15.93;14.98;;;;;;;;;;5051870;28;20158;-59
2022/05/01 04:49:59;;;;;;;14.00;13.10;;;;;;;;;;5051470;28;20119;-59
2022/05/01 04:52:24;;;;;;;22.67;16.23;;;;;;;;;;5060909;28;20383;-59
2022/05/01 04:54:49;;;;;;;14.82;13.93;;;;;;;;;;5057354;28;20052;-59
2022/05/01 04:57:15;;;;;;;14.50;13.60;;;;;;;;;;5053859;28;20024;-59
2022/05/01 04:59:41;;;;;;;14.48;13.60;;;;;;;;;;5053708;28;20062;-59
2022/05/01 05:02:06;;;;;;;12.52;11.73;;;;;;;;;;5052824;28;20044;-59
2022/05/01 05:04:31;;;;;;;14.55;13.68;;;;;;;;;;5053604;28;20061;-59
2022/05/01 05:06:57;;;;;;;16.50;15.52;;;;;;;;;;5055268;28;20086;-59
2022/05/01 05:12:07;;;;;;;16.88;15.88;;;;;;;;;;5053839;28;20075;-58
2022/05/01 05:14:33;;;;;;;15.20;14.25;;;;;;;;;;5054347;28;20092;-59
2022/05/01 05:17:00;;;;;;;17.40;16.38;;;;;;;;;;5056021;28;20044;-59
2022/05/01 05:19:26;;;;;;;15.30;14.40;;;;;;;;;;5056591;28;20032;-59
2022/05/01 05:21:51;;;;;;;19.10;18.00;;;;;;;;;;5055263;28;20509;-59
2022/05/01 05:24:17;;;;;;;17.35;16.35;;;;;;;;;;5059549;28;20032;-59
2022/05/01 05:26:42;;;;;;;18.42;17.38;;;;;;;;;;5042891;28;20425;-59
2022/05/01 05:29:08;;;;;;;18.45;17.38;;;;;;;;;;5055529;28;20482;-59
2022/05/01 05:31:34;;;;;;;17.88;16.88;;;;;;;;;;5053836;28;20626;-59
2022/05/01 05:34:00;;;;;;;19.83;18.63;;;;;;;;;;5057700;28;20029;-59
2022/05/01 05:36:25;;;;;;;18.52;17.42;;;;;;;;;;5057818;28;20037;-59
2022/05/01 05:38:50;;;;;;;18.42;17.42;;;;;;;;;;5065060;28;20075;-59
2022/05/01 05:41:16;;;;;;;16.77;15.88;;;;;;;;;;5057708;28;20093;-59
2022/05/01 05:43:41;;;;;;;17.90;16.90;;;;;;;;;;5056361;28;20038;-59
2022/05/01 05:46:06;;;;;;;17.17;16.17;;;;;;;;;;5056927;28;20039;-60
2022/05/01 05:48:32;;;;;;;15.73;14.82;;;;;;;;;;5054115;28;20033;-59
2022/05/01 05:50:57;;;;;;;18.48;17.48;;;;;;;;;;5053964;28;20679;-59
2022/05/01 05:53:23;;;;;;;15.00;14.10;;;;;;;;;;5055964;28;20041;-59
2022/05/01 05:55:48;;;;;;;16.15;15.05;;;;;;;;;;5056059;28;20064;-60
2022/05/01 05:58:14;;;;;;;14.38;13.38;;;;;;;;;;5058213;28;20120;-59
2022/05/01 06:00:40;;;;;;;15.80;14.85;;;;;;;;;;5053075;28;20021;-59
2022/05/01 06:03:05;;;;;;;16.63;14.98;;;;;;;;;;5057058;28;20029;-59
2022/05/01 06:05:30;;;;;;;17.50;16.30;;;;;;;;;;5053506;28;20046;-60
2022/05/01 06:07:56;;;;;;;13.57;12.77;;;;;;;;;;5055533;28;20374;-59
2022/05/01 06:10:21;;;;;;;17.08;16.08;;;;;;;;;;5055246;28;20079;-59
2022/05/01 06:12:47;;;;;;;14.38;13.48;;;;;;;;;;5056780;28;20037;-60
2022/05/01 06:15:12;;;;;;;15.13;13.48;;;;;;;;;;5057914;28;20140;-59
2022/05/01 06:17:40;;;;;;;12.80;12.02;;;;;;;;;;5064801;28;20029;-59
2022/05/01 06:20:06;;;;;;;10.48;9.77;;;;;;;;;;5056244;28;20530;-59
2022/05/01 06:22:32;;;;;;;14.77;13.88;;;;;;;;;;5055610;28;20059;-59
2022/05/01 06:24:58;;;;;;;11.98;11.18;;;;;;;;;;5051527;28;20675;-59
2022/05/01 06:27:24;;;;;;;8.68;8.10;;;;;;;;;;5053076;28;20044;-59
2022/05/01 06:29:49;;;;;;;8.35;7.75;;;;;;;;;;5055264;28;20029;-59
2022/05/01 06:32:19;;;;;;;12.48;11.70;;;;;;;;;;5052150;28;20033;-59
2022/05/01 06:34:45;;;;;;;7.30;6.80;;;;;;;;;;5053241;28;20048;-59
2022/05/01 06:37:11;;;;;;;6.85;6.35;;;;;;;;;;5052264;28;20711;-59
2022/05/01 06:39:36;;;;;;;6.65;6.15;;;;;;;;;;5071497;28;20036;-59
2022/05/01 06:42:02;;;;;;;7.25;6.75;;;;;;;;;;5053919;28;20087;-59
2022/05/01 06:44:27;;;;;;;8.38;7.78;;;;;;;;;;5055080;28;20054;-59
2022/05/01 06:46:53;;;;;;;7.03;6.53;;;;;;;;;;5056803;28;20127;-59
2022/05/01 06:49:18;;;;;;;9.45;8.75;;;;;;;;;;5052734;28;20037;-59
2022/05/01 06:51:45;;;;;;;8.02;7.47;;;;;;;;;;5050995;28;20767;-59
2022/05/01 06:54:10;;;;;;;6.53;6.03;;;;;;;;;;5054923;28;20025;-59
2022/05/01 06:56:36;;;;;;;12.25;11.45;;;;;;;;;;5056377;28;20037;-59
2022/05/01 06:59:02;;;;;;;11.05;10.35;;;;;;;;;;5055350;28;20505;-59
2022/05/01 07:01:27;;;;;;;14.20;13.38;;;;;;;;;;5055027;28;20033;-59
2022/05/01 07:03:52;;;;;;;6.50;6.00;;;;;;;;;;5056234;28;20127;-59
2022/05/01 07:06:18;;;;;;;6.78;6.28;;;;;;;;;;5055169;28;20040;-60
2022/05/01 07:08:43;;;;;;;7.70;7.15;;;;;;;;;;5056108;28;20601;-59
2022/05/01 07:11:09;;;;;;;7.22;6.72;;;;;;;;;;5055362;28;20029;-59
2022/05/01 07:13:36;;;;;;;6.63;6.18;;;;;;;;;;5053317;28;20029;-59
2022/05/01 07:16:01;;;;;;;6.70;6.10;;;;;;;;;;5055193;28;20036;-59
2022/05/01 07:18:27;;;;;;;6.43;5.93;;;;;;;;;;5054816;28;20032;-59
2022/05/01 07:20:52;;;;;;;6.47;6.00;;;;;;;;;;5049662;28;20025;-59
2022/05/01 07:23:21;;;;;;;6.35;5.95;;;;;;;;;;5053359;28;20037;-62
2022/05/01 07:25:47;;;;;;;7.10;6.53;;;;;;;;;;5053500;28;20028;-62
2022/05/01 07:28:13;;;;;;;6.20;5.60;;;;;;;;;;5052367;28;20390;-59
2022/05/01 07:30:38;;;;;;;13.30;12.50;;;;;;;;;;5062552;28;20028;-62
2022/05/01 07:33:03;;;;;;;13.95;13.05;;;;;;;;;;5054492;28;20395;-62
2022/05/01 07:35:29;;;;;;;15.77;14.88;;;;;;;;;;5054777;28;20086;-62
2022/05/01 07:37:54;;;;;;;19.35;18.25;;;;;;;;;;5054902;28;20025;-61
2022/05/01 07:40:24;;;;;;;19.00;17.92;;;;;;;;;;5053479;28;20032;-59
2022/05/01 07:42:50;;;;;;;10.75;10.05;;;;;;;;;;5056679;28;20033;-62
2022/05/01 07:45:17;;;;;;;21.33;20.13;;;;;;;;;;5054609;28;20355;-62
2022/05/01 07:47:42;;;;;;;8.35;7.85;;;;;;;;;;5052857;28;20125;-62
2022/05/01 07:50:08;;;;;;;19.35;18.25;;;;;;;;;;5070336;28;20041;-62
2022/05/01 07:52:34;;;;;;;12.77;12.02;;;;;;;;;;5054314;28;20041;-61
2022/05/01 07:55:01;;;;;;;17.52;16.50;;;;;;;;;;5053999;28;20390;-62
2022/05/01 07:57:27;;;;;;;15.45;14.55;;;;;;;;;;5061440;28;20044;-62
2022/05/01 07:59:53;;;;;;;13.52;12.73;;;;;;;;;;5053517;28;20035;-59
2022/05/01 08:02:18;;;;;;;22.30;21.10;;;;;;;;;;5054294;28;20075;-59
2022/05/01 08:04:44;;;;;;;22.48;21.10;;;;;;;;;;5053321;28;20094;-62
2022/05/01 08:07:10;;;;;;;20.45;19.25;;;;;;;;;;5055082;28;20091;-62
2022/05/01 08:09:36;;;;;;;22.08;20.88;;;;;;;;;;5051939;28;20557;-62
2022/05/01 08:12:02;;;;;;;12.20;11.40;;;;;;;;;;5054590;28;20374;-62
2022/05/01 08:14:28;;;;;;;21.75;20.50;;;;;;;;;;5054302;28;20047;-59
2022/05/01 08:16:53;;;;;;;22.17;20.98;;;;;;;;;;5051002;28;20474;-59
2022/05/01 08:22:05;;;;;;;18.50;17.45;;;;;;;;;;5049619;28;20035;-59
2022/05/01 08:24:30;;;;;;;23.92;22.63;;;;;;;;;;5052566;28;20036;-59
2022/05/01 08:26:56;;;;;;;25.15;23.70;;;;;;;;;;5052307;28;20035;-59
2022/05/01 08:29:21;;;;;;;16.27;15.20;;;;;;;;;;5052069;28;20037;-59
2022/05/01 08:31:47;;;;;;;22.42;21.10;;;;;;;;;;5054479;28;20477;-59
2022/05/01 08:34:12;;;;;;;27.65;26.15;;;;;;;;;;5052514;28;20028;-59
2022/05/01 08:36:38;;;;;;;25.73;24.35;;;;;;;;;;5056306;28;20102;-59
2022/05/01 08:39:04;;;;;;;27.92;26.38;;;;;;;;;;5054287;28;20117;-59
2022/05/01 08:41:31;;;;;;;14.43;13.52;;;;;;;;;;5055696;28;20517;-59
2022/05/01 08:43:58;;;;;;;15.60;14.60;;;;;;;;;;5055433;28;20040;-63
2022/05/01 08:46:36;;;;;;;14.45;13.60;;;;;;;;;;5053893;28;20051;-62
2022/05/01 08:49:07;;;;;;;20.63;19.48;;;;;;;;;;5064795;28;20103;-63
2022/05/01 08:51:34;;;;;;;14.88;13.88;;;;;;;;;;5055241;28;20454;-60
2022/05/01 08:54:04;;;;;;;20.17;18.98;;;;;;;;;;5060394;28;20059;-59
2022/05/01 08:56:31;;;;;;;28.58;27.05;;;;;;;;;;5050712;28;20039;-60
2022/05/01 08:58:56;;;;;;;18.15;17.05;;;;;;;;;;5054724;28;20027;-62
2022/05/01 09:01:22;;;;;;;12.73;11.93;;;;;;;;;;5049989;28;20462;-62
2022/05/01 09:03:48;;;;;;;13.70;12.88;;;;;;;;;;5048085;28;20044;-62
2022/05/01 09:06:13;;;;;;;36.83;34.78;;;;;;;;;;5049334;28;20703;-61
2022/05/01 09:08:40;;;;;;;24.15;22.85;;;;;;;;;;5048481;28;21026;-61
2022/05/01 09:13:51;;;;;;;13.63;12.82;;;;;;;;;;5040825;28;20123;-65
2022/05/01 09:16:17;;;;;;;24.58;23.27;;;;;;;;;;5041321;28;20044;-61
2022/05/01 09:18:43;;;;;;;32.78;31.05;;;;;;;;;;5047782;28;20029;-61
2022/05/01 09:21:09;;;;;;;29.20;27.58;;;;;;;;;;5045663;28;20052;-60
2022/05/01 09:23:43;;;;;;;31.98;30.15;;;;;;;;;;5051325;28;20029;-64
2022/05/01 09:26:16;;;;;;;24.75;23.38;;;;;;;;;;5053923;28;20039;-61
2022/05/01 09:28:49;;;;;;;27.10;25.50;;;;;;;;;;5048801;28;20036;-64
2022/05/01 09:31:15;;;;;;;21.98;20.67;;;;;;;;;;5052849;28;20024;-65
2022/05/01 09:33:40;;;;;;;29.65;28.05;;;;;;;;;;5050791;28;20051;-64
2022/05/01 09:36:06;;;;;;;28.15;26.65;;;;;;;;;;5050830;28;20037;-64
2022/05/01 09:38:32;;;;;;;17.05;16.02;;;;;;;;;;5061304;28;20024;-65
2022/05/01 09:41:01;;;;;;;15.15;14.18;;;;;;;;;;5052776;28;20131;-64
2022/05/01 09:43:41;;;;;;;13.63;12.73;;;;;;;;;;5048343;28;20039;-63
2022/05/01 09:46:20;;;;;;;27.92;26.38;;;;;;;;;;5048546;28;20115;-63
2022/05/01 09:49:09;;;;;;;25.00;23.65;;;;;;;;;;5051045;28;20032;-63
2022/05/01 09:51:39;;;;;;;23.85;22.55;;;;;;;;;;5049645;28;20044;-61
2022/05/01 09:54:08;;;;;;;12.13;11.23;;;;;;;;;;5047710;28;20035;-61
2022/05/01 09:56:48;;;;;;;19.73;18.60;;;;;;;;;;5051674;28;20043;-62
2022/05/01 09:59:15;;;;;;;27.55;26.05;;;;;;;;;;5055383;28;20615;-60
2022/05/01 10:01:56;;;;;;;15.63;14.73;;;;;;;;;;5055210;28;20047;-60
2022/05/01 10:04:23;;;;;;;21.85;20.55;;;;;;;;;;5051494;28;20032;-61
2022/05/01 10:06:51;;;;;;;11.82;11.13;;;;;;;;;;5050424;28;20118;-61
2022/05/01 10:09:18;;;;;;;18.27;17.13;;;;;;;;;;5054468;28;20048;-61
2022/05/01 10:11:44;;;;;;;23.70;22.40;;;;;;;;;;5058177;28;20033;-62
2022/05/01 10:14:10;;;;;;;14.57;13.52;;;;;;;;;;5054233;28;20067;-61
2022/05/01 10:16:36;;;;;;;13.25;12.45;;;;;;;;;;5056999;28;20374;-62
2022/05/01 10:19:01;;;;;;;19.15;18.08;;;;;;;;;;5056526;28;20036;-61
2022/05/01 10:21:28;;;;;;;16.40;15.40;;;;;;;;;;5056542;28;20462;-62
2022/05/01 10:23:54;;;;;;;21.95;20.65;;;;;;;;;;5050463;28;20032;-62
2022/05/01 10:26:25;;;;;;;16.00;15.00;;;;;;;;;;5051922;28;20029;-63
2022/05/01 10:28:50;;;;;;;;;;;;;;;;;;5053452;28;20032;-62
2022/05/01 10:35:02;;;;;;;13.13;12.32;;;;;;;;;;5052934;28;20028;-61
2022/05/01 10:37:42;;;;;;;13.18;12.38;;;;;;;;;;5054667;28;20025;-62
2022/05/01 10:40:07;;;;;;;11.90;11.20;;;;;;;;;;5051266;28;20100;-62
2022/05/01 10:42:35;;;;;;;20.20;19.08;;;;;;;;;;5050384;28;20108;-62
2022/05/01 10:45:01;;;;;;;14.95;14.05;;;;;;;;;;5050216;28;20975;-62
2022/05/01 10:47:38;;;;;;;17.90;16.83;;;;;;;;;;5048190;28;20365;-61
2022/05/01 10:50:08;;;;;;;15.38;14.50;;;;;;;;;;5053374;28;20722;-62
2022/05/01 10:52:34;;;;;;;26.53;25.13;;;;;;;;;;5053114;28;20131;-62
2022/05/01 10:55:05;;;;;;;25.48;24.08;;;;;;;;;;5054293;28;20116;-62
2022/05/01 10:57:31;;;;;;;14.48;13.60;;;;;;;;;;5050849;28;20040;-62
2022/05/01 11:00:15;;;;;;;14.82;13.82;;;;;;;;;;5050601;28;20039;-62
2022/05/01 11:02:48;;;;;;;22.25;20.75;;;;;;;;;;5051217;28;20067;-62
2022/05/01 11:05:54;;;;;;;24.77;23.38;;;;;;;;;;5050914;28;20041;-62
2022/05/01 11:08:27;;;;;;;17.42;16.33;;;;;;;;;;5041055;28;20474;-62
2022/05/01 11:10:55;;;;;;;21.20;20.00;;;;;;;;;;5058047;28;20049;-62
2022/05/01 11:13:26;;;;;;;20.75;19.55;;;;;;;;;;5057295;28;20866;-63
2022/05/01 11:15:53;;;;;;;20.52;19.38;;;;;;;;;;5053388;28;20103;-63
2022/05/01 11:18:50;;;;;;;24.23;22.90;;;;;;;;;;5049875;28;20112;-62
2022/05/01 11:21:22;;;;;;;15.23;14.32;;;;;;;;;;5049305;28;20176;-62
2022/05/01 11:24:01;;;;;;;17.00;16.00;;;;;;;;;;5051035;28;20455;-62
2022/05/01 11:26:28;;;;;;;13.73;12.83;;;;;;;;;;5052252;28;20533;-62
2022/05/01 11:29:14;;;;;;;19.27;18.17;;;;;;;;;;5049099;28;20132;-63
2022/05/01 11:31:41;;;;;;;20.63;19.50;;;;;;;;;;5052042;28;20155;-66
2022/05/01 11:34:15;;;;;;;15.15;14.23;;;;;;;;;;5055932;28;20041;-64
2022/05/01 11:37:01;;;;;;;15.30;14.43;;;;;;;;;;5052011;28;20051;-64
2022/05/01 11:39:45;;;;;;;28.00;26.40;;;;;;;;;;5050811;28;20036;-65
2022/05/01 11:42:23;;;;;;;13.40;12.55;;;;;;;;;;5052694;28;20037;-66
2022/05/01 11:44:49;;;;;;;15.45;14.55;;;;;;;;;;5052404;28;20032;-66
2022/05/01 11:47:15;;;;;;;13.70;12.90;;;;;;;;;;5053443;28;20044;-66
2022/05/01 11:49:40;;;;;;;19.23;18.13;;;;;;;;;;5049918;28;20037;-63
2022/05/01 11:52:07;;;;;;;15.32;14.13;;;;;;;;;;5056916;28;20385;-67
2022/05/01 11:54:35;;;;;;;20.52;19.30;;;;;;;;;;5052627;28;20040;-63
2022/05/01 12:02:31;;;;;;;17.00;16.00;;;;;;;;;;5053974;28;20472;-65
2022/05/01 12:05:04;;;;;;;18.83;17.77;;;;;;;;;;5050154;28;20032;-67
2022/05/01 12:07:30;;;;;;;14.68;13.73;;;;;;;;;;5049824;28;20066;-64
2022/05/01 12:09:56;;;;;;;13.23;12.40;;;;;;;;;;5047125;28;20058;-65
2022/05/01 12:12:27;;;;;;;18.13;17.02;;;;;;;;;;5050007;28;20021;-65
2022/05/01 12:14:52;;;;;;;24.25;22.45;;;;;;;;;;5049038;28;20102;-64
2022/05/01 12:17:21;;;;;;;19.30;18.17;;;;;;;;;;5048348;28;20037;-65
2022/05/01 12:19:48;;;;;;;17.20;16.10;;;;;;;;;;5051592;28;20116;-64
2022/05/01 12:22:16;;;;;;;12.82;12.02;;;;;;;;;;5052378;28;20382;-65
2022/05/01 12:24:46;;;;;;;14.80;13.90;;;;;;;;;;5046853;28;20683;-64
2022/05/01 12:27:12;;;;;;;15.45;14.40;;;;;;;;;;5049713;28;20521;-65
2022/05/01 12:29:45;;;;;;;14.27;13.27;;;;;;;;;;5048766;28;20045;-65
2022/05/01 12:32:13;;;;;;;15.82;14.77;;;;;;;;;;5054280;28;20040;-65
2022/05/01 12:34:48;;;;;;;14.48;13.60;;;;;;;;;;5053626;28;20028;-64
2022/05/01 12:37:16;;;;;;;14.82;13.82;;;;;;;;;;5053542;28;20113;-65
2022/05/01 12:40:04;;;;;;;15.30;14.30;;;;;;;;;;5052626;28;20052;-64
2022/05/01 12:45:39;;;;;;;13.50;12.65;;;;;;;;;;5053022;28;20040;-64
2022/05/01 12:48:06;;;;;;;16.73;15.68;;;;;;;;;;5052644;28;20097;-63
2022/05/01 12:50:32;;;;;;;15.07;14.13;;;;;;;;;;5050606;28;20528;-64
2022/05/01 12:53:21;;;;;;;15.68;14.65;;;;;;;;;;5051624;28;20047;-60
2022/05/01 12:55:47;;;;;;;13.80;12.90;;;;;;;;;;5052279;28;20178;-67
2022/05/01 12:58:12;;;;;;;14.43;13.43;;;;;;;;;;5052541;28;20159;-68
2022/05/01 13:00:42;;;;;;;17.02;15.35;;;;;;;;;;5048973;28;20052;-64
2022/05/01 13:03:38;;;;;;;13.93;12.93;;;;;;;;;;5048377;28;20044;-65
2022/05/01 13:06:07;;;;;;;14.32;13.40;;;;;;;;;;5055226;28;20056;-66
2022/05/01 13:08:37;;;;;;;16.95;15.95;;;;;;;;;;5054003;28;20493;-66
2022/05/01 13:11:14;;;;;;;15.23;14.32;;;;;;;;;;5056722;28;20029;-66
2022/05/01 13:13:54;;;;;;;13.88;12.98;;;;;;;;;;5050184;28;20675;-66
2022/05/01 13:16:23;;;;;;;23.15;21.90;;;;;;;;;;5049263;28;20033;-66
2022/05/01 13:18:56;;;;;;;13.18;12.38;;;;;;;;;;5056257;28;20051;-65
2022/05/01 13:21:25;;;;;;;14.05;13.15;;;;;;;;;;5051485;28;20040;-65
2022/05/01 13:23:52;;;;;;;16.08;15.05;;;;;;;;;;5051111;28;20024;-64
2022/05/01 13:26:18;;;;;;;14.32;13.43;;;;;;;;;;5050764;28;20094;-64
2022/05/01 13:28:45;;;;;;;15.38;14.48;;;;;;;;;;5063113;28;20391;-64
2022/05/01 13:31:13;;;;;;;14.45;13.55;;;;;;;;;;5055312;28;20154;-64
2022/05/01 13:33:39;;;;;;;15.18;14.25;;;;;;;;;;5049842;28;20533;-64
2022/05/01 13:36:04;;;;;;;16.92;15.93;;;;;;;;;;5052047;28;20112;-65
2022/05/01 13:38:30;;;;;;;16.35;15.43;;;;;;;;;;5059763;28;20759;-64
2022/05/01 13:46:24;;;;;;;14.05;13.18;;;;;;;;;;5055302;28;20036;-64
2022/05/01 13:48:51;;;;;;;15.07;14.18;;;;;;;;;;5054433;28;20093;-64
2022/05/01 13:51:17;;;;;;;13.93;13.13;;;;;;;;;;5063505;28;20546;-64
2022/05/01 13:53:42;;;;;;;15.27;14.18;;;;;;;;;;5053462;28;20041;-64
2022/05/01 13:56:08;;;;;;;16.33;15.35;;;;;;;;;;5056018;28;20098;-64
2022/05/01 13:58:34;;;;;;;15.00;14.10;;;;;;;;;;5050853;28;20474;-63
2022/05/01 14:01:00;;;;;;;13.00;12.13;;;;;;;;;;5051438;28;20029;-63
2022/05/01 14:03:25;;;;;;;13.80;13.00;;;;;;;;;;5052765;28;20028;-65
2022/05/01 14:05:51;;;;;;;13.68;12.88;;;;;;;;;;5055908;28;20043;-65
2022/05/01 14:08:16;;;;;;;13.48;12.68;;;;;;;;;;5057277;28;20033;-64
2022/05/01 14:10:41;;;;;;;14.38;13.55;;;;;;;;;;5056732;28;20040;-65
2022/05/01 14:13:07;;;;;;;14.63;13.70;;;;;;;;;;5054629;28;20060;-65
2022/05/01 14:15:34;;;;;;;14.73;13.82;;;;;;;;;;5056732;28;20474;-64
2022/05/01 14:18:00;;;;;;;16.40;15.43;;;;;;;;;;5056955;28;20033;-64
2022/05/01 14:20:26;;;;;;;15.45;14.55;;;;;;;;;;5056648;28;20038;-64
2022/05/01 14:22:51;;;;;;;17.58;16.45;;;;;;;;;;5055775;28;20025;-64
2022/05/01 14:25:16;;;;;;;15.95;15.00;;;;;;;;;;5056399;28;20855;-64
2022/05/01 14:27:42;;;;;;;14.38;13.48;;;;;;;;;;5053052;28;20114;-65
2022/05/01 14:30:09;;;;;;;13.52;12.68;;;;;;;;;;5054774;28;20480;-64
2022/05/01 14:32:55;;;;;;;15.25;14.35;;;;;;;;;;5053705;28;20044;-64
2022/05/01 14:35:24;;;;;;;13.43;12.63;;;;;;;;;;5054966;28;20471;-64
2022/05/01 14:38:01;;;;;;;13.93;13.02;;;;;;;;;;5052615;28;20037;-65
2022/05/01 14:40:27;;;;;;;14.43;13.52;;;;;;;;;;5056580;28;20227;-63
2022/05/01 14:42:54;;;;;;;14.68;13.77;;;;;;;;;;5057639;28;20028;-64
2022/05/01 14:45:23;;;;;;;15.55;14.65;;;;;;;;;;5055949;28;20093;-64
2022/05/01 14:48:11;;;;;;;14.88;13.98;;;;;;;;;;5050217;28;20028;-64
2022/05/01 14:50:39;;;;;;;15.93;15.02;;;;;;;;;;5051024;28;20036;-64
2022/05/01 14:53:09;;;;;;;15.68;14.68;;;;;;;;;;5052555;28;20087;-65
2022/05/01 14:55:35;;;;;;;15.07;14.18;;;;;;;;;;5054380;28;20040;-64
2022/05/01 14:58:02;;;;;;;13.50;12.70;;;;;;;;;;5052320;28;20563;-64
2022/05/01 15:06:18;;;;;;;13.00;12.20;;;;;;;;;;5053439;28;20044;-64